Time;durP1;ratioP1;P1;durP2;ratioP2;P2;SDS_P1;SDS_P2;PMS_P1;PMS_P2;Temp;Humidity;BMP_temperature;BMP_pressure;BME280_temperature;BME280_humidity;BME280_pressure;Samples;Min_cycle;Max_cycle;Signal;HPM_P1;HPM_P2
2022/01/13 00:02:06;;;;;;;39.07;22.43;;;;;;;-4.01;100.00;98346.84;5028507;28;21001;-87
2022/01/13 00:04:32;;;;;;;41.90;23.40;;;;;;;-4.00;100.00;98335.69;5008088;28;20036;-87
2022/01/13 00:06:58;;;;;;;43.23;24.90;;;;;;;-4.09;100.00;98344.38;5043824;28;20043;-87
2022/01/13 00:09:24;;;;;;;41.17;23.80;;;;;;;-4.07;100.00;98337.50;5038522;28;20472;-87
2022/01/13 00:11:51;;;;;;;43.97;25.13;;;;;;;-4.16;100.00;98339.31;5045747;28;20033;-87
2022/01/13 00:24:44;;;;;;;40.60;21.70;;;;;;;-3.99;100.00;98349.41;5034029;28;20041;-85
2022/01/13 00:27:39;;;;;;;37.63;22.03;;;;;;;-3.95;100.00;98348.50;5023343;28;20476;-85
2022/01/13 00:30:10;;;;;;;40.27;22.13;;;;;;;-3.91;100.00;98347.59;5025865;28;21041;-85
2022/01/13 00:32:35;;;;;;;44.00;22.73;;;;;;;-3.85;100.00;98362.97;5037957;28;20849;-85
2022/01/13 00:35:01;;;;;;;39.87;22.97;;;;;;;-3.75;100.00;98373.97;5017923;28;20452;-85
2022/01/13 00:37:56;;;;;;;46.07;24.87;;;;;;;-3.66;100.00;98366.13;5032384;28;20088;-85
2022/01/13 00:40:21;;;;;;;52.07;27.87;;;;;;;-3.64;100.00;98359.25;5015899;28;20052;-86
2022/01/13 00:42:47;;;;;;;43.40;24.90;;;;;;;-3.63;100.00;98372.09;5023865;28;20806;-85
2022/01/13 00:45:14;;;;;;;38.83;22.60;;;;;;;-3.68;100.00;98371.31;5022191;28;20033;-84
2022/01/13 00:47:41;;;;;;;41.70;22.60;;;;;;;-3.61;100.00;98375.50;5037495;28;20044;-85
2022/01/13 00:50:08;;;;;;;36.17;22.13;;;;;;;-3.56;100.00;98373.69;5018116;28;20554;-85
2022/01/13 00:52:34;;;;;;;36.43;21.37;;;;;;;-3.65;100.00;98378.97;5009021;28;20487;-85
2022/01/13 00:55:20;;;;;;;36.40;21.73;;;;;;;-3.76;100.00;98388.53;5035775;28;20537;-84
2022/01/13 00:57:46;;;;;;;33.83;21.73;;;;;;;-3.86;100.00;98380.06;5030117;28;20480;-85
2022/01/13 01:00:12;;;;;;;38.50;24.60;;;;;;;-3.81;100.00;98377.47;5032104;28;20460;-85
2022/01/13 01:02:38;;;;;;;36.77;22.17;;;;;;;-3.74;100.00;98375.66;5032253;28;20468;-85
2022/01/13 01:05:04;;;;;;;40.40;22.90;;;;;;;-3.67;100.00;98383.28;5023141;28;20479;-85
2022/01/13 01:07:30;;;;;;;35.83;21.63;;;;;;;-3.65;100.00;98389.25;5046233;28;20272;-84
2022/01/13 01:09:58;;;;;;;39.03;22.90;;;;;;;-3.67;100.00;98403.00;5024111;28;20470;-85
2022/01/13 01:12:24;;;;;;;39.50;23.10;;;;;;;-3.75;100.00;98399.69;5041411;28;20046;-84
2022/01/13 01:14:55;;;;;;;37.00;22.00;;;;;;;-3.75;100.00;98397.13;5039767;28;20639;-85
2022/01/13 01:17:21;;;;;;;38.17;22.03;;;;;;;-3.81;100.00;98393.75;5031414;28;20475;-87
2022/01/13 01:19:49;;;;;;;34.90;20.87;;;;;;;-3.71;100.00;98398.78;5047937;28;20460;-87
2022/01/13 01:22:42;;;;;;;37.93;21.37;;;;;;;-3.74;100.00;98404.78;5033418;28;20478;-85
2022/01/13 01:27:57;;;;;;;37.97;22.23;;;;;;;-3.69;100.00;98405.59;5031387;28;21080;-85
2022/01/13 01:30:39;;;;;;;42.37;23.73;;;;;;;-3.73;100.00;98414.19;5031422;28;20464;-85
2022/01/13 01:33:15;;;;;;;43.70;23.73;;;;;;;-3.72;100.00;98410.78;5020728;28;20524;-85
2022/01/13 01:39:29;;;;;;;39.23;23.17;;;;;;;-3.55;100.00;98405.44;5034662;28;20447;-84
2022/01/13 01:41:56;;;;;;;37.30;21.80;;;;;;;-3.59;100.00;98399.47;5038518;28;20551;-86
2022/01/13 01:44:33;;;;;;;39.60;22.73;;;;;;;-3.48;100.00;98390.78;5031155;28;20524;-85
2022/01/13 01:47:00;;;;;;;47.00;24.30;;;;;;;-3.40;100.00;98389.78;5019561;28;21097;-85
2022/01/13 01:49:32;;;;;;;39.93;22.37;;;;;;;-3.35;100.00;98382.03;5034725;28;20468;-85
2022/01/13 01:52:00;;;;;;;37.57;21.67;;;;;;;-3.35;100.00;98388.00;5007943;28;20576;-86
2022/01/13 01:54:37;;;;;;;39.13;22.67;;;;;;;-3.29;100.00;98388.78;5038724;28;20467;-85
2022/01/13 01:57:04;;;;;;;35.07;21.30;;;;;;;-3.20;100.00;98402.38;5026710;28;21006;-86
2022/01/13 01:59:33;;;;;;;37.80;21.40;;;;;;;-3.15;100.00;98397.19;5008115;28;20459;-86
2022/01/13 02:01:59;;;;;;;44.43;23.07;;;;;;;-3.23;100.00;98394.69;5022648;28;20483;-86
2022/01/13 02:04:26;;;;;;;36.10;21.60;;;;;;;-3.26;100.00;98391.31;5041938;28;20448;-86
2022/01/13 02:07:03;;;;;;;36.97;21.10;;;;;;;-3.32;100.00;98395.69;5036868;28;20458;-85
2022/01/13 02:09:29;;;;;;;37.67;22.03;;;;;;;-3.40;100.00;98387.22;5049858;28;20436;-86
2022/01/13 02:12:07;;;;;;;40.73;21.40;;;;;;;-3.39;100.00;98385.47;5050871;28;20488;-86
2022/01/13 02:14:48;;;;;;;37.93;21.67;;;;;;;-3.30;100.00;98379.38;5017992;28;20463;-86
2022/01/13 02:17:43;;;;;;;43.13;22.97;;;;;;;-3.30;100.00;98369.94;5034833;28;20519;-86
2022/01/13 02:20:42;;;;;;;40.07;20.23;;;;;;;-3.28;100.00;98365.63;5007255;28;20471;-86
2022/01/13 02:26:56;;;;;;;42.90;21.00;;;;;;;-3.24;100.00;98354.41;5031047;28;21209;-86
2022/01/13 02:29:22;;;;;;;37.30;21.30;;;;;;;-3.18;100.00;98354.31;5013076;28;20474;-86
2022/01/13 02:31:48;;;;;;;38.83;22.03;;;;;;;-3.10;100.00;98346.47;5015161;28;20451;-86
2022/01/13 02:34:14;;;;;;;37.07;20.73;;;;;;;-3.06;100.00;98347.28;5007330;28;20061;-86
2022/01/13 02:36:42;;;;;;;37.37;21.50;;;;;;;-3.03;100.00;98337.78;5001034;28;20051;-86
2022/01/13 02:39:12;;;;;;;36.63;22.07;;;;;;;-2.95;100.00;98337.66;5037382;28;20460;-86
2022/01/13 02:41:37;;;;;;;36.33;22.30;;;;;;;-2.92;100.00;98335.91;5023017;28;21078;-86
2022/01/13 02:44:11;;;;;;;36.10;20.97;;;;;;;-2.95;100.00;98332.50;5033796;28;20467;-86
2022/01/13 02:49:22;;;;;;;35.50;21.07;;;;;;;-2.95;100.00;98333.38;5041729;28;20455;-85
2022/01/13 02:51:53;;;;;;;34.57;20.77;;;;;;;-2.91;100.00;98326.47;5030277;28;20492;-86
2022/01/13 02:54:19;;;;;;;34.00;20.93;;;;;;;-2.91;100.00;98344.47;5024857;28;20475;-86
2022/01/13 02:56:46;;;;;;;35.67;20.80;;;;;;;-2.95;100.00;98341.09;5005329;28;20535;-86
2022/01/13 02:59:13;;;;;;;33.73;21.73;;;;;;;-2.88;100.00;98336.72;5025592;28;20456;-86
2022/01/13 03:05:02;;;;;;;35.07;20.03;;;;;;;-3.06;100.00;98340.41;5019845;28;20538;-86
2022/01/13 03:07:33;;;;;;;35.33;20.93;;;;;;;-3.02;100.00;98338.63;4996746;28;20468;-86
2022/01/13 03:09:58;;;;;;;31.77;20.27;;;;;;;-3.01;100.00;98335.19;5014658;28;20472;-86
2022/01/13 03:12:26;;;;;;;34.07;21.70;;;;;;;-3.02;100.00;98333.47;5007878;28;20533;-86
2022/01/13 03:14:52;;;;;;;37.03;22.27;;;;;;;-3.09;100.00;98327.56;5005939;28;20100;-86
2022/01/13 03:17:18;;;;;;;37.20;20.93;;;;;;;-3.16;100.00;98334.53;5034800;28;20604;-86
2022/01/13 03:19:44;;;;;;;33.77;20.70;;;;;;;-3.14;100.00;98325.09;5034540;28;20087;-86
2022/01/13 03:22:17;;;;;;;37.83;20.80;;;;;;;-3.11;100.00;98325.03;5026733;28;20472;-87
2022/01/13 03:24:42;;;;;;;27.42;16.48;;;;;;;-3.01;100.00;98335.19;5038692;28;20041;-86
2022/01/13 03:27:21;;;;;;;36.93;22.03;;;;;;;-2.94;100.00;98323.94;4998937;28;20033;-86
2022/01/13 03:29:47;;;;;;;34.10;21.30;;;;;;;-2.86;100.00;98327.22;5008224;28;20108;-85
2022/01/13 03:32:14;;;;;;;32.90;21.27;;;;;;;-2.86;100.00;98324.63;5039146;28;20478;-86
2022/01/13 03:34:57;;;;;;;34.83;20.50;;;;;;;-2.90;100.00;98341.03;5014817;28;20472;-86
2022/01/13 03:37:22;;;;;;;34.92;20.05;;;;;;;-3.04;100.00;98338.66;5039230;28;20529;-86
2022/01/13 03:39:49;;;;;;;37.77;22.27;;;;;;;-3.08;100.00;98330.16;5031689;28;20037;-86
2022/01/13 03:42:15;;;;;;;35.13;21.90;;;;;;;-3.04;100.00;98315.50;5039251;28;20033;-86
2022/01/13 03:44:41;;;;;;;35.50;21.27;;;;;;;-3.06;100.00;98322.38;5016836;28;20452;-86
2022/01/13 03:47:14;;;;;;;37.73;21.40;;;;;;;-3.03;100.00;98316.34;5012427;28;20243;-86
2022/01/13 03:49:41;;;;;;;35.63;21.33;;;;;;;-2.98;100.00;98320.56;5031823;28;20043;-86
2022/01/13 03:52:13;;;;;;;35.37;21.10;;;;;;;-2.98;100.00;98317.97;5036756;28;20480;-86
2022/01/13 03:54:39;;;;;;;36.20;21.00;;;;;;;-2.91;100.00;98321.31;5026074;28;20467;-86
2022/01/13 03:57:36;;;;;;;34.77;21.47;;;;;;;-2.85;100.00;98309.19;5045913;28;20501;-86
2022/01/13 04:00:52;;;;;;;37.20;21.87;;;;;;;-2.92;100.00;98310.16;5035051;28;20459;-86
2022/01/13 04:03:17;;;;;;;35.57;20.87;;;;;;;-2.89;100.00;98314.38;4997349;28;20499;-85
2022/01/13 04:06:12;;;;;;;37.73;20.50;;;;;;;-2.91;100.00;98316.16;5015224;28;21017;-86
2022/01/13 04:08:38;;;;;;;37.83;21.83;;;;;;;-2.96;100.00;98310.22;5022012;28;20030;-86
2022/01/13 04:14:57;;;;;;;39.73;20.60;;;;;;;-2.88;100.00;98303.25;5038867;28;20447;-86
2022/01/13 04:17:26;;;;;;;34.97;19.30;;;;;;;-2.79;100.00;98310.78;5015783;28;20487;-85
2022/01/13 04:19:52;;;;;;;32.87;20.00;;;;;;;-2.79;100.00;98312.50;5032917;28;20505;-85
2022/01/13 04:22:21;;;;;;;33.67;20.47;;;;;;;-2.76;100.00;98310.72;5024915;28;20483;-85
2022/01/13 04:24:51;;;;;;;32.43;18.80;;;;;;;-2.74;100.00;98314.13;5023443;28;20018;-86
2022/01/13 04:27:30;;;;;;;34.67;20.60;;;;;;;-2.76;100.00;98315.88;5051690;28;20462;-86
2022/01/13 04:32:40;;;;;;;36.17;22.00;;;;;;;-2.79;100.00;98308.22;5035910;28;20452;-85
2022/01/13 04:35:07;;;;;;;39.20;20.47;;;;;;;-2.73;100.00;98320.97;5031174;28;20490;-86
2022/01/13 04:37:33;;;;;;;41.17;24.47;;;;;;;-2.69;100.00;98325.19;5048937;28;20037;-85
2022/01/13 04:39:59;;;;;;;50.63;28.17;;;;;;;-2.67;100.00;98320.03;5052841;28;20463;-86
2022/01/13 04:42:31;;;;;;;38.40;23.37;;;;;;;-2.64;100.00;98330.28;5045836;28;20033;-86
2022/01/13 04:44:56;;;;;;;31.57;20.03;;;;;;;-2.68;100.00;98332.06;5026591;28;20167;-86
2022/01/13 04:47:22;;;;;;;32.60;19.70;;;;;;;-2.71;100.00;98332.13;5019139;28;20484;-86
2022/01/13 04:49:48;;;;;;;33.67;21.10;;;;;;;-2.67;100.00;98332.91;5046623;28;20491;-86
2022/01/13 04:52:17;;;;;;;33.87;21.13;;;;;;;-2.67;100.00;98330.34;5032609;28;20064;-86
2022/01/13 04:54:44;;;;;;;33.40;20.27;;;;;;;-2.69;100.00;98332.91;5026551;28;20034;-86
2022/01/13 04:57:47;;;;;;;39.13;22.10;;;;;;;-2.68;100.00;98338.94;5033970;28;20480;-86
2022/01/13 05:00:13;;;;;;;36.17;21.20;;;;;;;-2.67;100.00;98341.47;5003931;28;20448;-86
2022/01/13 05:02:39;;;;;;;41.50;25.60;;;;;;;-2.73;100.00;98344.16;5033314;28;20463;-86
2022/01/13 05:05:05;;;;;;;51.93;31.47;;;;;;;-2.69;100.00;98348.38;5022128;28;20467;-86
2022/01/13 05:07:32;;;;;;;38.97;24.20;;;;;;;-2.71;100.00;98351.88;5035601;28;20037;-86
2022/01/13 05:09:58;;;;;;;36.23;20.97;;;;;;;-2.68;100.00;98350.09;5037858;28;21170;-87
2022/01/13 05:12:30;;;;;;;37.87;21.17;;;;;;;-2.68;100.00;98352.66;5024513;28;20551;-86
2022/01/13 05:15:08;;;;;;;35.73;20.93;;;;;;;-2.66;100.00;98342.34;5016429;28;20087;-86
2022/01/13 05:20:22;;;;;;;44.77;22.60;;;;;;;-2.53;100.00;98358.44;5034252;28;20471;-86
2022/01/13 05:22:49;;;;;;;49.10;26.67;;;;;;;-2.49;100.00;98353.19;5041688;28;20488;-86
2022/01/13 05:25:21;;;;;;;45.40;25.40;;;;;;;-2.43;100.00;98352.25;5035151;28;20476;-86
2022/01/13 05:27:47;;;;;;;43.20;25.03;;;;;;;-2.31;100.00;98348.56;5018682;28;20476;-86
2022/01/13 05:30:19;;;;;;;49.70;27.00;;;;;;;-2.26;100.00;98347.63;5008064;28;20470;-86
2022/01/13 05:32:46;;;;;;;45.97;26.33;;;;;;;-2.29;100.00;98341.66;5014801;28;20502;-85
2022/01/13 05:35:13;;;;;;;38.07;23.77;;;;;;;-2.34;100.00;98346.94;5015034;28;20448;-85
2022/01/13 05:37:38;;;;;;;39.03;23.27;;;;;;;-2.32;100.00;98342.56;5033716;28;20468;-85
2022/01/13 05:40:05;;;;;;;39.70;22.07;;;;;;;-2.27;100.00;98345.09;5047802;28;20474;-86
2022/01/13 05:42:30;;;;;;;37.63;22.80;;;;;;;-2.25;100.00;98341.56;5035630;28;20112;-85
2022/01/13 05:44:59;;;;;;;35.97;21.90;;;;;;;-2.30;100.00;98348.56;5039808;28;20543;-86
2022/01/13 05:47:25;;;;;;;40.80;22.87;;;;;;;-2.30;100.00;98350.28;5018824;28;20549;-85
2022/01/13 05:49:51;;;;;;;37.47;22.90;;;;;;;-2.24;100.00;98347.59;5030362;28;21079;-85
2022/01/13 05:52:17;;;;;;;42.53;24.87;;;;;;;-2.16;100.00;98353.44;5025781;28;20121;-86
2022/01/13 05:54:43;;;;;;;40.43;23.97;;;;;;;-2.17;100.00;98360.34;5025214;28;20456;-85
2022/01/13 05:57:37;;;;;;;43.63;25.80;;;;;;;-2.18;100.00;98362.94;5057691;28;20279;-86
2022/01/13 06:00:05;;;;;;;38.35;22.55;;;;;;;-2.43;100.00;98365.13;5028967;28;20084;-86
2022/01/13 06:02:38;;;;;;;33.43;21.63;;;;;;;-2.51;100.00;98369.56;5033665;28;20037;-86
2022/01/13 06:05:04;;;;;;;32.90;20.37;;;;;;;-2.42;100.00;98362.50;5041784;28;20509;-85
2022/01/13 06:07:41;;;;;;;35.53;22.10;;;;;;;-2.39;100.00;98366.75;5033868;28;20460;-85
2022/01/13 06:10:10;;;;;;;37.40;21.87;;;;;;;-2.47;100.00;98368.63;5039800;28;20470;-85
2022/01/13 06:12:39;;;;;;;34.33;20.67;;;;;;;-2.49;100.00;98368.63;5007249;28;20939;-85
2022/01/13 06:15:10;;;;;;;38.77;23.10;;;;;;;-2.44;100.00;98371.16;5042876;28;20475;-86
2022/01/13 06:17:38;;;;;;;35.60;20.63;;;;;;;-2.34;100.00;98364.97;4997808;28;20939;-85
2022/01/13 06:20:09;;;;;;;33.60;21.53;;;;;;;-2.39;100.00;98356.44;5004195;28;20543;-85
2022/01/13 06:22:36;;;;;;;39.93;23.70;;;;;;;-2.45;100.00;98357.44;5038453;28;20459;-85
2022/01/13 06:25:06;;;;;;;37.53;22.77;;;;;;;-2.44;100.00;98350.53;5031109;28;20492;-86
2022/01/13 06:27:32;;;;;;;43.73;26.63;;;;;;;-2.47;100.00;98355.75;5038775;28;20459;-85
2022/01/13 06:30:00;;;;;;;54.07;32.93;;;;;;;-2.40;100.00;98363.34;5031809;28;20669;-85
2022/01/13 06:32:27;;;;;;;48.93;30.77;;;;;;;-2.43;100.00;98354.81;5035785;28;20334;-86
2022/01/13 06:34:53;;;;;;;40.27;24.63;;;;;;;-2.44;100.00;98358.28;5013314;28;20464;-84
2022/01/13 06:37:19;;;;;;;38.37;22.20;;;;;;;-2.49;100.00;98355.75;4996080;28;20471;-86
2022/01/13 06:39:46;;;;;;;40.00;23.33;;;;;;;-2.41;100.00;98363.38;5023661;28;20057;-81
2022/01/13 06:42:12;;;;;;;36.37;22.77;;;;;;;-2.45;100.00;98361.72;5043250;28;20448;-81
2022/01/13 06:44:39;;;;;;;35.27;21.53;;;;;;;-2.45;100.00;98356.56;5036322;28;20554;-81
2022/01/13 06:47:06;;;;;;;37.57;23.83;;;;;;;-2.48;100.00;98354.03;5030075;28;20468;-82
2022/01/13 06:49:32;;;;;;;38.10;23.20;;;;;;;-2.47;100.00;98360.91;5036636;28;20440;-82
2022/01/13 06:51:58;;;;;;;33.77;22.87;;;;;;;-2.46;100.00;98370.31;5028733;28;20456;-81
2022/01/13 06:54:23;;;;;;;34.47;22.30;;;;;;;-2.42;100.00;98375.38;5015324;28;20480;-82
2022/01/13 06:56:50;;;;;;;37.10;22.63;;;;;;;-2.38;100.00;98383.94;5041762;28;20036;-82
2022/01/13 06:59:16;;;;;;;35.50;21.30;;;;;;;-2.32;100.00;98381.22;5016542;28;20053;-82
2022/01/13 07:02:04;;;;;;;38.13;20.93;;;;;;;-2.43;100.00;98390.88;5034647;28;21002;-81
2022/01/13 07:04:29;;;;;;;36.27;21.23;;;;;;;-2.40;100.00;98393.41;5029076;28;20456;-82
2022/01/13 07:06:56;;;;;;;34.30;21.33;;;;;;;-2.44;100.00;98396.91;5012146;28;20455;-81
2022/01/13 07:09:22;;;;;;;36.57;22.00;;;;;;;-2.44;100.00;98404.66;5029429;28;20041;-82
2022/01/13 07:11:51;;;;;;;36.53;21.63;;;;;;;-2.38;100.00;98404.56;5021272;28;20985;-82
2022/01/13 07:14:17;;;;;;;36.27;20.60;;;;;;;-2.42;100.00;98405.47;5018106;28;20040;-82
2022/01/13 07:16:44;;;;;;;40.63;21.20;;;;;;;-2.39;100.00;98419.13;5036767;28;20893;-82
2022/01/13 07:19:12;;;;;;;35.77;21.93;;;;;;;-2.34;100.00;98420.81;4999582;28;20106;-82
2022/01/13 07:21:40;;;;;;;32.87;20.60;;;;;;;-2.30;100.00;98420.72;5029592;28;20486;-81
2022/01/13 07:24:06;;;;;;;35.60;21.13;;;;;;;-2.27;100.00;98417.25;5028480;28;20530;-82
2022/01/13 07:26:32;;;;;;;35.63;21.17;;;;;;;-2.20;100.00;98430.00;5032108;28;20545;-82
2022/01/13 07:29:02;;;;;;;35.33;20.30;;;;;;;-2.16;100.00;98428.22;5030277;28;20488;-82
2022/01/13 07:31:28;;;;;;;33.43;20.40;;;;;;;-2.11;100.00;98433.28;5021252;28;20562;-83
2022/01/13 07:33:54;;;;;;;33.03;19.30;;;;;;;-2.14;100.00;98426.47;5037698;28;20464;-82
2022/01/13 07:36:20;;;;;;;32.23;21.17;;;;;;;-2.05;100.00;98439.16;5039742;28;20489;-82
2022/01/13 07:38:45;;;;;;;33.77;20.50;;;;;;;-2.04;100.00;98440.03;5032656;28;20557;-82
2022/01/13 07:41:11;;;;;;;37.00;20.63;;;;;;;-1.98;100.00;98435.63;5015483;28;20037;-82
2022/01/13 07:43:41;;;;;;;33.00;20.67;;;;;;;-1.95;100.00;98439.84;5023350;28;20055;-82
2022/01/13 07:46:07;;;;;;;32.30;18.43;;;;;;;-1.97;100.00;98439.91;5045495;28;20037;-82
2022/01/13 07:48:39;;;;;;;34.43;20.40;;;;;;;-1.94;100.00;98439.84;5001973;28;20567;-81
2022/01/13 07:51:09;;;;;;;32.50;19.00;;;;;;;-1.94;100.00;98436.41;5033248;28;20516;-82
2022/01/13 07:53:35;;;;;;;33.23;20.77;;;;;;;-1.93;100.00;98438.94;5032595;28;20901;-82
2022/01/13 07:56:06;;;;;;;35.27;20.50;;;;;;;-1.97;100.00;98442.47;5039392;28;20986;-83
2022/01/13 07:58:41;;;;;;;34.33;21.87;;;;;;;-1.96;100.00;98435.59;5015231;28;20124;-83
2022/01/13 08:01:07;;;;;;;35.97;21.20;;;;;;;-1.93;100.00;98427.78;5031507;28;20976;-82
2022/01/13 08:03:34;;;;;;;34.80;20.93;;;;;;;-1.94;100.00;98432.09;5042903;28;20452;-83
2022/01/13 08:06:04;;;;;;;34.23;21.10;;;;;;;-1.79;100.00;98430.94;5032444;28;20466;-82
2022/01/13 08:08:32;;;;;;;34.80;20.73;;;;;;;-1.78;100.00;98432.66;5032275;28;20464;-83
2022/01/13 08:10:58;;;;;;;35.87;21.17;;;;;;;-1.76;100.00;98441.22;5034688;28;20452;-82
2022/01/13 08:13:24;;;;;;;35.43;21.47;;;;;;;-1.72;100.00;98448.00;5045791;28;20582;-83
2022/01/13 08:15:58;;;;;;;34.10;20.33;;;;;;;-1.70;100.00;98458.31;5039154;28;21032;-82
2022/01/13 08:21:08;;;;;;;34.07;20.10;;;;;;;-1.59;100.00;98458.09;5029302;28;21051;-83
2022/01/13 08:23:35;;;;;;;29.20;18.73;;;;;;;-1.59;100.00;98455.53;5021609;28;20464;-83
2022/01/13 08:26:01;;;;;;;36.10;21.30;;;;;;;-1.55;100.00;98452.84;5031193;28;20581;-82
2022/01/13 08:28:28;;;;;;;33.93;20.57;;;;;;;-1.49;100.00;98449.31;5008891;28;20456;-82
2022/01/13 08:30:55;;;;;;;36.50;21.07;;;;;;;-1.48;100.00;98451.00;5018745;28;20190;-84
2022/01/13 08:33:22;;;;;;;34.90;20.93;;;;;;;-1.43;100.00;98449.19;5020349;28;20468;-83
2022/01/13 08:35:50;;;;;;;31.63;19.07;;;;;;;-1.39;100.00;98444.81;5027483;28;20566;-83
2022/01/13 08:38:16;;;;;;;33.47;21.57;;;;;;;-1.47;100.00;98445.81;5009505;28;20460;-83
2022/01/13 08:41:01;;;;;;;33.20;17.40;;;;;;;-1.44;100.00;98438.00;5041532;28;20498;-84
2022/01/13 08:43:28;;;;;;;35.00;20.50;;;;;;;-1.45;100.00;98438.03;5026854;28;20460;-84
2022/01/13 08:45:55;;;;;;;33.97;19.03;;;;;;;-1.38;100.00;98437.00;5034938;28;20456;-84
2022/01/13 08:48:21;;;;;;;18.97;11.97;;;;;;;-1.35;100.00;98442.13;5031140;28;20476;-84
2022/01/13 08:50:48;;;;;;;19.30;11.00;;;;;;;-1.30;100.00;98435.16;5022851;28;21009;-84
2022/01/13 08:53:15;;;;;;;20.97;10.07;;;;;;;-1.31;100.00;98428.28;5036965;28;20105;-84
2022/01/13 08:55:58;;;;;;;18.23;9.50;;;;;;;-1.39;100.00;98431.91;5030839;28;20501;-84
2022/01/13 08:58:24;;;;;;;18.63;9.43;;;;;;;-1.44;100.00;98432.84;5024736;28;20508;-84
2022/01/13 09:00:53;;;;;;;22.73;11.57;;;;;;;-1.39;100.00;98437.91;5038426;28;20551;-84
2022/01/13 09:03:19;;;;;;;17.87;9.20;;;;;;;-1.35;100.00;98431.78;5026847;28;21025;-84
2022/01/13 09:05:45;;;;;;;20.87;10.90;;;;;;;-1.32;100.00;98436.06;5002175;28;20504;-84
2022/01/13 09:08:13;;;;;;;17.20;10.00;;;;;;;-1.43;100.00;98431.97;5014280;28;20056;-83
2022/01/13 09:10:41;;;;;;;26.37;11.70;;;;;;;-1.42;100.00;98433.66;5032532;28;20464;-83
2022/01/13 09:13:14;;;;;;;26.50;12.07;;;;;;;-1.37;100.00;98443.06;5029490;28;20476;-84
2022/01/13 09:15:49;;;;;;;19.50;9.43;;;;;;;-1.36;100.00;98443.00;5029961;28;20618;-84
2022/01/13 09:18:19;;;;;;;24.30;11.10;;;;;;;-1.31;100.00;98443.78;5034811;28;20648;-83
2022/01/13 09:20:47;;;;;;;19.17;9.67;;;;;;;-1.19;100.00;98442.66;5033335;28;20479;-83
2022/01/13 09:23:13;;;;;;;17.47;9.10;;;;;;;-1.25;100.00;98438.47;5017304;28;20492;-84
2022/01/13 09:25:48;;;;;;;17.50;9.10;;;;;;;-1.10;100.00;98428.72;5025215;28;20523;-84
2022/01/13 09:28:14;;;;;;;17.63;9.30;;;;;;;-1.10;100.00;98432.13;5012291;28;20464;-84
2022/01/13 09:30:40;;;;;;;18.17;9.80;;;;;;;-1.11;100.00;98434.72;5013530;28;20496;-84
2022/01/13 09:33:10;;;;;;;18.67;10.00;;;;;;;-1.01;100.00;98428.47;5035028;28;20025;-84
2022/01/13 09:35:36;;;;;;;17.43;10.23;;;;;;;-1.05;100.00;98429.44;5033347;28;20448;-84
2022/01/13 09:38:02;;;;;;;18.00;9.73;;;;;;;-1.06;100.00;98428.59;5021392;28;21028;-84
2022/01/13 09:40:29;;;;;;;16.00;9.20;;;;;;;-1.05;100.00;98425.13;5013843;28;20029;-84
2022/01/13 09:42:55;;;;;;;21.83;10.40;;;;;;;-1.17;100.00;98424.53;5024044;28;20509;-84
2022/01/13 09:45:21;;;;;;;17.77;9.60;;;;;;;-1.21;100.00;98429.78;5038460;28;20448;-84
2022/01/13 09:47:49;;;;;;;21.40;10.63;;;;;;;-1.06;100.00;98427.75;5030819;28;20460;-84
2022/01/13 09:50:18;;;;;;;18.80;10.67;;;;;;;-1.17;100.00;98425.41;5029406;28;20476;-84
2022/01/13 09:52:45;;;;;;;18.37;9.27;;;;;;;-1.25;100.00;98422.13;5034638;28;20512;-84
2022/01/13 09:55:13;;;;;;;21.33;10.43;;;;;;;-1.11;100.00;98433.00;5016368;28;20444;-84
2022/01/13 09:57:44;;;;;;;19.70;9.23;;;;;;;-1.10;100.00;98436.47;5031866;28;20811;-84
2022/01/13 10:00:13;;;;;;;17.03;9.43;;;;;;;-1.10;100.00;98429.56;5029217;28;20452;-84
2022/01/13 10:02:39;;;;;;;22.83;10.27;;;;;;;-1.03;100.00;98433.69;5004752;28;20502;-84
2022/01/13 10:05:05;;;;;;;18.03;9.60;;;;;;;-1.00;100.00;98432.78;5031472;28;20463;-83
2022/01/13 10:07:41;;;;;;;18.13;10.27;;;;;;;-0.91;100.00;98422.22;5040551;28;20458;-84
2022/01/13 10:10:17;;;;;;;20.77;9.87;;;;;;;-0.91;100.00;98435.13;5025965;28;20482;-84
2022/01/13 10:12:48;;;;;;;17.87;9.73;;;;;;;-1.15;100.00;98430.53;5017809;28;20560;-84
2022/01/13 10:18:03;;;;;;;20.73;10.73;;;;;;;-1.04;100.00;98431.13;5037845;28;20450;-84
2022/01/13 10:20:32;;;;;;;20.63;9.97;;;;;;;-0.97;100.00;98430.13;5013146;28;20464;-84
2022/01/13 10:23:09;;;;;;;21.03;10.80;;;;;;;-1.03;100.00;98427.69;5030290;28;20476;-84
2022/01/13 10:25:37;;;;;;;24.37;12.50;;;;;;;-1.01;100.00;98425.91;5009715;28;20534;-84
2022/01/13 10:28:17;;;;;;;19.63;10.53;;;;;;;-0.98;100.00;98437.00;5038832;28;20478;-84
2022/01/13 10:30:45;;;;;;;23.23;12.03;;;;;;;-0.81;100.00;98433.19;5025911;28;20471;-84
2022/01/13 10:33:24;;;;;;;21.63;10.57;;;;;;;-0.64;100.00;98436.25;5034345;28;20479;-84
2022/01/13 10:35:53;;;;;;;20.23;10.07;;;;;;;-0.37;100.00;98432.16;5015127;28;20878;-85
2022/01/13 10:38:20;;;;;;;19.10;10.17;;;;;;;-0.45;100.00;98425.47;5027807;28;20474;-85
2022/01/13 10:40:48;;;;;;;18.70;9.63;;;;;;;-0.57;100.00;98422.31;5017490;28;20453;-85
2022/01/13 10:43:16;;;;;;;20.17;10.33;;;;;;;-0.54;100.00;98426.53;5018693;28;20465;-85
2022/01/13 10:45:48;;;;;;;16.57;10.50;;;;;;;-0.31;100.00;98429.41;5012558;28;20518;-84
2022/01/13 10:48:28;;;;;;;20.13;10.07;;;;;;;-0.42;100.00;98428.84;5000437;28;21171;-85
2022/01/13 10:50:56;;;;;;;18.20;9.60;;;;;;;0.12;100.00;98420.53;5034940;28;20463;-84
2022/01/13 10:53:33;;;;;;;19.20;10.70;;;;;;;0.20;100.00;98418.63;4999850;28;20538;-84
2022/01/13 10:56:23;;;;;;;20.37;9.73;;;;;;;0.22;100.00;98413.38;5011886;28;20514;-85
2022/01/13 10:58:54;;;;;;;21.20;10.33;;;;;;;0.57;100.00;98409.81;5033017;28;20458;-85
2022/01/13 11:01:19;;;;;;;21.27;10.20;;;;;;;0.47;100.00;98411.81;4995530;28;20579;-84
2022/01/13 11:03:46;;;;;;;19.90;9.80;;;;;;;0.36;100.00;98413.00;5013345;28;20550;-85
2022/01/13 11:06:16;;;;;;;19.47;9.97;;;;;;;0.51;100.00;98420.34;5011687;28;20025;-84
2022/01/13 11:08:47;;;;;;;17.37;9.40;;;;;;;0.78;100.00;98415.25;5018846;28;20467;-84
2022/01/13 11:11:25;;;;;;;16.80;9.57;;;;;;;1.21;100.00;98411.34;5008161;28;20460;-84
2022/01/13 11:13:57;;;;;;;17.77;9.37;;;;;;;1.40;100.00;98415.91;5028559;28;20480;-84
2022/01/13 11:16:24;;;;;;;17.20;8.33;;;;;;;2.19;100.00;98413.31;5011815;28;20468;-84
2022/01/13 11:18:54;;;;;;;18.47;10.17;;;;;;;2.78;100.00;98412.88;5023795;28;20479;-84
2022/01/13 11:21:20;;;;;;;17.27;9.87;;;;;;;2.97;100.00;98408.66;5004868;28;20471;-84
2022/01/13 11:23:49;;;;;;;18.67;9.57;;;;;;;3.00;97.67;98408.56;5029053;28;20492;-84
2022/01/13 11:26:17;;;;;;;18.80;9.20;;;;;;;3.84;94.79;98406.94;5012589;28;20064;-85
2022/01/13 11:28:43;;;;;;;16.47;8.20;;;;;;;4.04;88.19;98406.09;5009958;28;20075;-83
2022/01/13 11:31:10;;;;;;;11.53;6.90;;;;;;;3.93;89.62;98411.75;5016630;28;20063;-85
2022/01/13 11:33:38;;;;;;;12.40;6.60;;;;;;;4.63;85.12;98399.19;5030272;28;20048;-85
2022/01/13 11:36:07;;;;;;;14.30;8.13;;;;;;;3.74;87.41;98411.66;5027649;28;20034;-85
2022/01/13 11:38:33;;;;;;;14.60;8.03;;;;;;;3.80;89.20;98415.78;5009182;28;20040;-84
2022/01/13 11:41:08;;;;;;;15.03;8.30;;;;;;;3.76;88.50;98409.03;5040532;28;20024;-85
2022/01/13 11:43:41;;;;;;;12.67;6.60;;;;;;;4.29;87.18;98398.06;5005983;28;20022;-85
2022/01/13 11:46:21;;;;;;;15.45;7.95;;;;;;;4.62;88.05;98400.06;5030158;28;20511;-85
2022/01/13 11:49:03;;;;;;;16.40;9.47;;;;;;;4.94;84.35;98393.41;5013285;28;20523;-85
2022/01/13 11:51:55;;;;;;;15.17;8.97;;;;;;;4.53;85.85;98396.16;5028014;28;20033;-85
2022/01/13 11:54:35;;;;;;;16.20;8.10;;;;;;;4.92;84.63;98393.47;4995469;28;20033;-85
2022/01/13 11:57:14;;;;;;;14.53;8.70;;;;;;;4.33;84.37;98398.78;5010605;28;20115;-85
2022/01/13 12:00:06;;;;;;;15.07;7.80;;;;;;;4.66;85.99;98391.19;5036327;28;20025;-85
2022/01/13 12:02:42;;;;;;;14.43;7.73;;;;;;;5.18;82.88;98383.59;5031226;28;20515;-85
2022/01/13 12:05:21;;;;;;;14.40;8.50;;;;;;;4.31;84.73;98388.41;5026980;28;20399;-85
2022/01/13 12:07:56;;;;;;;15.63;8.80;;;;;;;4.52;83.32;98378.78;5025471;28;20042;-85